createdAt,value
2022-11-09T00:02:27.570Z,69.22
2022-11-09T00:04:53.985Z,69.66
2022-11-09T00:07:20.499Z,69.56
2022-11-09T00:09:47.075Z,69.91
2022-11-09T00:12:13.624Z,70.01
2022-11-09T00:14:40.130Z,70.16
2022-11-09T00:17:06.572Z,70.42
2022-11-09T00:19:33.022Z,70.13
2022-11-09T00:21:59.453Z,70.51
2022-11-09T00:24:25.896Z,70.60
2022-11-09T00:26:52.399Z,70.51
2022-11-09T00:29:19.600Z,71.03
2022-11-09T00:31:49.706Z,70.48
2022-11-09T00:34:16.270Z,70.59
2022-11-09T00:36:42.719Z,71.11
2022-11-09T00:39:09.172Z,71.02
2022-11-09T00:41:35.655Z,71.01
2022-11-09T00:44:02.150Z,71.80
2022-11-09T00:46:28.957Z,71.69
2022-11-09T00:48:56.151Z,72.05
2022-11-09T00:51:23.267Z,71.95
2022-11-09T00:53:53.773Z,72.01
2022-11-09T00:56:21.280Z,71.89
2022-11-09T00:58:47.762Z,72.57
2022-11-09T01:01:17.245Z,72.34
2022-11-09T01:03:46.881Z,72.61
2022-11-09T01:06:16.481Z,72.46
2022-11-09T01:08:44.116Z,72.68
2022-11-09T01:11:11.302Z,72.99
2022-11-09T01:13:38.969Z,72.99
2022-11-09T01:16:12.994Z,73.55
2022-11-09T01:18:40.225Z,73.17
2022-11-09T01:21:09.715Z,73.32
2022-11-09T01:23:37.049Z,73.87
2022-11-09T01:26:06.410Z,73.78
2022-11-09T01:28:33.283Z,73.94
2022-11-09T01:31:07.868Z,73.67
2022-11-09T01:33:34.624Z,74.11
2022-11-09T01:36:08.003Z,73.67
2022-11-09T01:38:36.409Z,73.70
2022-11-09T01:41:02.932Z,74.08
2022-11-09T01:43:29.477Z,74.47
2022-11-09T01:46:20.550Z,74.70
2022-11-09T01:48:55.688Z,74.97
2022-11-09T01:51:42.961Z,75.16
2022-11-09T01:54:21.156Z,75.31
2022-11-09T01:56:52.077Z,75.18
2022-11-09T01:59:24.300Z,75.42
2022-11-09T02:01:52.037Z,75.62
2022-11-09T02:04:28.629Z,76.03
2022-11-09T02:06:57.425Z,76.11
2022-11-09T02:09:31.752Z,76.19
2022-11-09T02:11:59.964Z,76.28
2022-11-09T02:14:29.302Z,76.16
2022-11-09T02:16:56.497Z,76.46
2022-11-09T02:19:22.965Z,76.24
2022-11-09T02:21:50.204Z,76.43
2022-11-09T02:24:17.853Z,76.45
2022-11-09T02:26:48.300Z,76.28
2022-11-09T02:29:22.518Z,76.53
2022-11-09T02:31:54.915Z,76.24
2022-11-09T02:34:21.942Z,76.51
2022-11-09T02:36:48.450Z,76.70
2022-11-09T02:39:23.020Z,76.75
2022-11-09T02:42:02.911Z,76.49
2022-11-09T02:44:37.828Z,76.43
2022-11-09T02:47:04.237Z,76.57
2022-11-09T02:49:30.981Z,76.62
2022-11-09T02:51:57.467Z,76.75
2022-11-09T02:54:23.976Z,77.27
2022-11-09T02:56:51.810Z,77.06
2022-11-09T02:59:18.435Z,77.18
2022-11-09T03:01:44.973Z,77.17
2022-11-09T03:04:11.486Z,77.27
2022-11-09T03:06:38.190Z,77.32
2022-11-09T03:09:12.774Z,77.58
2022-11-09T03:11:40.934Z,77.72
2022-11-09T03:14:12.465Z,77.92
2022-11-09T03:16:50.182Z,78.37
2022-11-09T03:19:16.858Z,78.66
2022-11-09T03:21:44.802Z,79.02
2022-11-09T03:24:11.398Z,79.23
2022-11-09T03:26:39.425Z,79.17
2022-11-09T03:29:06.096Z,79.36
2022-11-09T03:31:33.000Z,79.17
2022-11-09T03:34:03.392Z,79.57
2022-11-09T03:36:29.847Z,79.65
2022-11-09T03:38:56.784Z,79.76
2022-11-09T03:41:23.379Z,79.74
2022-11-09T03:43:49.962Z,79.92
2022-11-09T03:46:16.412Z,80.31
2022-11-09T03:48:42.905Z,80.34
2022-11-09T03:51:09.399Z,80.73
2022-11-09T03:53:35.876Z,80.75
2022-11-09T03:56:02.335Z,81.28
2022-11-09T03:58:29.687Z,81.35
2022-11-09T04:00:56.189Z,81.38
2022-11-09T04:03:22.908Z,81.54
2022-11-09T04:05:49.546Z,81.33
2022-11-09T04:08:16.025Z,81.37
2022-11-09T04:10:42.513Z,80.80
2022-11-09T04:13:09.067Z,79.87
2022-11-09T04:15:35.491Z,78.74
2022-11-09T04:18:03.497Z,77.64
2022-11-09T04:20:31.232Z,77.29
2022-11-09T04:23:02.368Z,77.22
2022-11-09T04:25:32.723Z,77.11
2022-11-09T04:27:59.662Z,76.65
2022-11-09T04:30:28.105Z,76.50
2022-11-09T04:32:55.743Z,76.04
2022-11-09T04:35:22.519Z,76.53
2022-11-09T04:38:02.452Z,75.97
2022-11-09T04:40:31.915Z,75.66
2022-11-09T04:43:02.925Z,73.99
2022-11-09T04:45:29.565Z,72.84
2022-11-09T04:48:03.565Z,71.89
2022-11-09T04:50:30.587Z,71.20
2022-11-09T04:53:07.984Z,70.68
2022-11-09T04:55:34.832Z,71.04
2022-11-09T04:58:01.580Z,71.49
2022-11-09T05:00:28.072Z,71.79
2022-11-09T05:02:54.562Z,72.43
2022-11-09T05:05:21.044Z,73.21
2022-11-09T05:07:47.487Z,74.37
2022-11-09T05:10:14.266Z,74.83
2022-11-09T05:12:45.685Z,75.86
2022-11-09T05:15:12.602Z,78.88
2022-11-09T05:17:39.145Z,81.80
2022-11-09T05:20:06.039Z,83.41
2022-11-09T05:22:50.872Z,84.75
2022-11-09T05:25:17.369Z,85.81
2022-11-09T05:27:43.790Z,86.87
2022-11-09T05:30:10.809Z,87.41
2022-11-09T05:32:39.465Z,88.28
2022-11-09T05:35:06.503Z,88.71
2022-11-09T05:37:33.006Z,89.10
2022-11-09T05:39:59.588Z,90.12
2022-11-09T05:42:26.364Z,89.92
2022-11-09T05:44:52.794Z,90.65
2022-11-09T05:47:20.145Z,91.04
2022-11-09T05:49:46.676Z,91.44
2022-11-09T05:52:13.496Z,91.63
2022-11-09T05:54:39.969Z,91.95
2022-11-09T05:57:06.448Z,92.46
2022-11-09T05:59:33.028Z,92.52
2022-11-09T06:01:59.587Z,92.96
2022-11-09T06:04:26.042Z,93.02
2022-11-09T06:06:52.557Z,93.33
2022-11-09T06:09:19.084Z,93.39
2022-11-09T06:11:45.544Z,93.31
2022-11-09T06:14:12.036Z,93.53
2022-11-09T06:16:38.444Z,93.75
2022-11-09T06:19:05.211Z,93.66
2022-11-09T06:21:31.642Z,93.99
2022-11-09T06:23:58.103Z,94.06
2022-11-09T06:26:24.559Z,94.17
2022-11-09T06:28:50.994Z,94.25
2022-11-09T06:31:17.675Z,94.58
2022-11-09T06:33:44.176Z,94.94
2022-11-09T06:36:11.450Z,94.72
2022-11-09T06:38:38.258Z,95.09
2022-11-09T06:41:04.918Z,95.38
2022-11-09T06:43:31.563Z,94.85
2022-11-09T06:45:58.027Z,94.93
2022-11-09T06:48:24.821Z,95.15
2022-11-09T06:50:51.245Z,95.58
2022-11-09T06:53:18.598Z,95.54
2022-11-09T06:55:50.195Z,95.40
2022-11-09T06:58:17.119Z,94.88
2022-11-09T07:00:44.749Z,95.10
2022-11-09T07:03:15.024Z,95.02
2022-11-09T07:05:41.839Z,95.25
2022-11-09T07:08:08.280Z,94.95
2022-11-09T07:10:34.712Z,95.31
2022-11-09T07:13:03.184Z,95.33
2022-11-09T07:15:29.825Z,95.35
2022-11-09T07:17:57.897Z,95.41
2022-11-09T07:20:24.907Z,95.68
2022-11-09T07:22:51.357Z,95.99
2022-11-09T07:25:18.104Z,96.68
2022-11-09T07:27:44.555Z,96.81
2022-11-09T07:30:11.718Z,96.88
2022-11-09T07:33:09.987Z,96.42
2022-11-09T07:35:27.170Z,96.71
2022-11-09T07:37:53.956Z,96.97
2022-11-09T07:40:20.700Z,96.48
2022-11-09T07:42:47.183Z,96.52
2022-11-09T07:45:14.004Z,96.11
2022-11-09T07:47:40.415Z,95.95
2022-11-09T07:50:07.028Z,96.23
2022-11-09T07:52:33.476Z,95.96
2022-11-09T07:54:59.916Z,96.28
2022-11-09T07:57:27.791Z,96.20
2022-11-09T07:59:54.410Z,96.31
2022-11-09T08:02:20.904Z,96.16
2022-11-09T08:04:47.521Z,96.17
2022-11-09T08:07:14.395Z,96.46
2022-11-09T08:09:40.953Z,96.80
2022-11-09T08:12:07.460Z,96.44
2022-11-09T08:14:33.918Z,96.29
2022-11-09T08:17:00.369Z,96.15
2022-11-09T08:19:26.795Z,96.17
2022-11-09T08:21:57.280Z,95.95
2022-11-09T08:24:24.206Z,96.20
2022-11-09T08:26:50.683Z,95.21
2022-11-09T08:29:17.483Z,95.17
2022-11-09T08:31:44.074Z,94.59
2022-11-09T08:34:13.904Z,94.75
2022-11-09T08:36:40.353Z,94.48
2022-11-09T08:39:06.879Z,94.58
2022-11-09T08:41:33.863Z,94.14
2022-11-09T08:44:00.392Z,94.28
2022-11-09T08:46:26.871Z,93.82
2022-11-09T08:48:53.373Z,93.90
2022-11-09T08:51:19.824Z,94.37
2022-11-09T08:53:46.347Z,93.60
2022-11-09T08:56:12.994Z,93.38
2022-11-09T08:58:39.500Z,93.39
2022-11-09T09:01:09.944Z,93.69
2022-11-09T09:03:40.278Z,93.66
2022-11-09T09:06:07.870Z,93.66
2022-11-09T09:08:35.157Z,93.64
2022-11-09T09:11:03.358Z,93.35
2022-11-09T09:13:30.465Z,94.33
2022-11-09T09:15:57.167Z,94.47
2022-11-09T09:18:23.875Z,94.80
2022-11-09T09:20:51.104Z,95.19
2022-11-09T09:23:17.664Z,95.55
2022-11-09T09:25:44.235Z,96.25
2022-11-09T09:28:11.023Z,95.69
2022-11-09T09:30:37.474Z,96.24
2022-11-09T09:33:04.021Z,96.31
2022-11-09T09:35:30.448Z,96.32
2022-11-09T09:37:58.145Z,96.13
2022-11-09T09:40:38.387Z,96.40
2022-11-09T09:43:04.880Z,96.77
2022-11-09T09:45:34.594Z,96.68
2022-11-09T09:48:04.081Z,96.48
2022-11-09T09:50:53.480Z,96.68
2022-11-09T09:53:31.836Z,95.94
2022-11-09T09:56:19.719Z,96.15
2022-11-09T09:58:52.728Z,96.33
2022-11-09T10:01:23.938Z,96.42
2022-11-09T10:03:50.868Z,95.81
2022-11-09T10:06:26.580Z,95.27
2022-11-09T10:09:13.080Z,94.70
2022-11-09T10:11:46.832Z,95.03
2022-11-09T10:14:40.386Z,94.69
2022-11-09T10:17:11.502Z,95.04
2022-11-09T10:19:55.099Z,95.06
2022-11-09T10:23:00.565Z,94.48
2022-11-09T10:25:50.198Z,94.75
2022-11-09T10:28:17.473Z,93.63
2022-11-09T10:30:44.695Z,92.34
2022-11-09T10:33:11.114Z,91.32
2022-11-09T10:35:45.022Z,90.91
2022-11-09T10:38:29.334Z,90.17
2022-11-09T10:41:34.893Z,90.11
2022-11-09T10:44:20.218Z,89.80
2022-11-09T10:47:16.638Z,89.96
2022-11-09T10:50:25.481Z,89.21
2022-11-09T10:53:21.168Z,89.26
2022-11-09T10:56:17.640Z,89.14
2022-11-09T10:59:43.025Z,89.22
2022-11-09T11:02:28.950Z,89.14
2022-11-09T11:05:16.904Z,89.01
2022-11-09T11:08:42.139Z,88.93
2022-11-09T11:11:34.999Z,88.88
2022-11-09T11:14:23.826Z,88.66
2022-11-09T11:17:27.722Z,88.68
2022-11-09T11:20:31.045Z,87.91
2022-11-09T11:23:17.975Z,86.53
2022-11-09T11:26:23.543Z,84.86
2022-11-09T11:29:45.281Z,82.54
2022-11-09T11:32:30.739Z,79.90
2022-11-09T11:35:26.296Z,77.33
2022-11-09T11:38:25.111Z,76.20
2022-11-09T11:41:35.353Z,75.59
2022-11-09T11:45:02.995Z,76.18
2022-11-09T11:48:08.523Z,76.42
2022-11-09T11:51:31.573Z,77.02
2022-11-09T11:54:25.462Z,76.53
2022-11-09T11:58:07.198Z,76.76
2022-11-09T12:01:03.771Z,76.76
2022-11-09T12:04:00.049Z,77.23
2022-11-09T12:07:08.307Z,77.17
2022-11-09T12:10:06.558Z,77.10
2022-11-09T12:13:14.294Z,77.03
2022-11-09T12:16:14.078Z,77.34
2022-11-09T12:19:35.052Z,77.74
2022-11-09T12:22:38.869Z,77.44
2022-11-09T12:25:43.024Z,77.38
2022-11-09T12:28:50.444Z,76.48
2022-11-09T12:31:56.823Z,76.78
2022-11-09T12:34:57.100Z,77.31
2022-11-09T12:37:51.165Z,77.07
2022-11-09T12:40:42.791Z,77.21
2022-11-09T12:43:34.209Z,77.82
2022-11-09T12:46:22.607Z,78.08
2022-11-09T12:49:35.103Z,78.33
2022-11-09T12:52:27.007Z,78.74
2022-11-09T12:55:18.367Z,78.59
2022-11-09T12:58:03.928Z,78.98
2022-11-09T13:00:51.671Z,79.40
2022-11-09T13:03:39.875Z,79.78
2022-11-09T13:06:30.340Z,79.49
2022-11-09T13:09:15.501Z,79.62
2022-11-09T13:12:35.417Z,79.68
2022-11-09T13:15:22.277Z,80.05
2022-11-09T13:18:45.871Z,79.84
2022-11-09T13:21:33.412Z,80.07
2022-11-09T13:24:30.564Z,80.30
2022-11-09T13:27:47.514Z,80.39
2022-11-09T13:30:35.371Z,80.95
2022-11-09T13:33:22.227Z,81.02
2022-11-09T13:36:07.509Z,81.33
2022-11-09T13:39:30.844Z,81.38
2022-11-09T13:42:31.225Z,81.34
2022-11-09T13:45:43.231Z,81.23
2022-11-09T13:48:36.520Z,81.22
2022-11-09T13:51:43.822Z,81.52
2022-11-09T13:54:36.960Z,81.40
2022-11-09T13:57:24.665Z,81.46
2022-11-09T14:00:19.529Z,81.42
2022-11-09T14:03:18.302Z,81.20
2022-11-09T14:06:03.394Z,81.04
2022-11-09T14:08:49.133Z,81.33
2022-11-09T14:11:49.145Z,81.37
2022-11-09T14:15:03.543Z,81.69
2022-11-09T14:18:10.780Z,81.94
2022-11-09T14:21:08.365Z,82.21
2022-11-09T14:23:54.155Z,82.18
2022-11-09T14:26:38.915Z,82.39
2022-11-09T14:29:25.621Z,82.61
2022-11-09T14:32:31.609Z,82.37
2022-11-09T14:35:22.413Z,82.37
2022-11-09T14:38:21.493Z,82.46
2022-11-09T14:41:19.930Z,82.65
2022-11-09T14:44:05.488Z,82.38
2022-11-09T14:46:55.707Z,83.15
2022-11-09T14:49:41.328Z,82.83
2022-11-09T14:52:28.865Z,83.27
2022-11-09T14:55:16.382Z,83.69
2022-11-09T14:58:02.613Z,83.53
2022-11-09T15:01:20.110Z,83.56
2022-11-09T15:04:09.117Z,84.14
2022-11-09T15:07:03.829Z,83.87
2022-11-09T15:09:52.113Z,84.26
2022-11-09T15:12:39.186Z,84.23
2022-11-09T15:15:29.576Z,84.42
2022-11-09T15:18:33.577Z,85.13
2022-11-09T15:21:33.023Z,86.09
2022-11-09T15:24:19.607Z,86.60
2022-11-09T15:27:29.519Z,87.15
2022-11-09T15:30:43.243Z,87.67
2022-11-09T15:33:33.607Z,87.77
2022-11-09T15:36:31.537Z,88.53
2022-11-09T15:39:19.302Z,88.66
2022-11-09T15:42:04.534Z,88.77
2022-11-09T15:44:56.176Z,89.20
2022-11-09T15:47:41.656Z,89.04
2022-11-09T15:50:27.671Z,89.48
2022-11-09T15:53:13.788Z,89.69
2022-11-09T15:56:00.362Z,89.44
2022-11-09T15:58:48.608Z,90.36
2022-11-09T16:01:33.971Z,90.25
2022-11-09T16:04:19.117Z,90.68
2022-11-09T16:07:04.063Z,90.58
2022-11-09T16:09:49.326Z,90.95
2022-11-09T16:12:34.156Z,91.23
2022-11-09T16:15:20.031Z,91.75
2022-11-09T16:18:05.650Z,91.83
2022-11-09T16:20:50.870Z,91.82
2022-11-09T16:23:36.187Z,92.46
2022-11-09T16:26:21.291Z,92.76
2022-11-09T16:29:06.557Z,92.44
2022-11-09T16:31:52.416Z,92.95
2022-11-09T16:34:37.928Z,92.93
2022-11-09T16:37:23.481Z,93.06
2022-11-09T16:40:12.738Z,93.46
2022-11-09T16:43:00.303Z,93.52
2022-11-09T16:45:48.685Z,94.00
2022-11-09T16:48:34.544Z,93.82
2022-11-09T16:51:19.935Z,93.84
2022-11-09T16:54:05.213Z,94.00
2022-11-09T16:56:52.196Z,94.85
2022-11-09T16:59:37.251Z,94.65
2022-11-09T17:02:24.784Z,95.31
2022-11-09T17:05:09.949Z,94.88
2022-11-09T17:07:55.222Z,95.19
2022-11-09T17:10:42.256Z,95.44
2022-11-09T17:13:27.459Z,95.85
2022-11-09T17:16:13.563Z,96.10
2022-11-09T17:18:59.959Z,96.10
2022-11-09T17:21:45.090Z,96.10
2022-11-09T17:24:30.517Z,95.90
2022-11-09T17:27:16.699Z,96.09
2022-11-09T17:30:02.066Z,95.60
2022-11-09T17:32:48.530Z,96.28
2022-11-09T17:35:36.579Z,96.17
2022-11-09T17:38:22.099Z,96.42
2022-11-09T17:41:09.337Z,97.04
2022-11-09T17:43:54.388Z,97.41
2022-11-09T17:46:39.216Z,97.07
2022-11-09T17:49:24.144Z,97.57
2022-11-09T17:52:09.020Z,97.56
2022-11-09T17:54:53.870Z,98.02
2022-11-09T17:57:38.785Z,97.81
2022-11-09T18:00:23.777Z,98.35
2022-11-09T18:03:09.281Z,97.93
2022-11-09T18:05:54.153Z,98.58
2022-11-09T18:08:39.051Z,98.23
2022-11-09T18:11:24.736Z,97.97
2022-11-09T18:14:11.172Z,98.01
2022-11-09T18:16:56.195Z,98.23
2022-11-09T18:19:41.241Z,98.35
2022-11-09T18:22:25.994Z,98.34
2022-11-09T18:25:11.376Z,98.46
2022-11-09T18:27:57.015Z,98.55
2022-11-09T18:30:41.943Z,98.48
2022-11-09T18:33:26.882Z,99.44
2022-11-09T18:36:15.451Z,98.92
2022-11-09T18:39:03.021Z,99.55
2022-11-09T18:41:48.209Z,99.33
2022-11-09T18:44:33.100Z,99.15
2022-11-09T18:47:18.243Z,99.85
2022-11-09T18:50:03.534Z,99.54
2022-11-09T18:52:48.662Z,99.15
2022-11-09T18:55:33.556Z,99.51
2022-11-09T18:58:18.727Z,99.73
2022-11-09T19:01:06.310Z,99.08
2022-11-09T19:03:56.278Z,99.09
2022-11-09T19:06:44.513Z,99.23
2022-11-09T19:09:30.325Z,99.30
2022-11-09T19:12:15.327Z,99.15
2022-11-09T19:15:01.577Z,99.16
2022-11-09T19:17:46.356Z,99.39
2022-11-09T19:20:31.650Z,99.63
2022-11-09T19:23:16.574Z,99.47
2022-11-09T19:26:02.037Z,99.35
2022-11-09T19:28:46.993Z,98.86
2022-11-09T19:31:32.024Z,98.90
2022-11-09T19:34:18.849Z,98.87
2022-11-09T19:37:03.959Z,99.23
2022-11-09T19:39:49.146Z,99.56
2022-11-09T19:42:34.316Z,99.04
2022-11-09T19:45:19.626Z,99.00
2022-11-09T19:48:04.614Z,98.65
2022-11-09T19:50:51.195Z,98.81
2022-11-09T19:53:42.014Z,99.18
2022-11-09T19:56:31.157Z,99.36
2022-11-09T19:59:17.083Z,99.18
2022-11-09T20:02:01.961Z,99.05
2022-11-09T20:04:48.391Z,99.12
2022-11-09T20:07:33.387Z,98.79
2022-11-09T20:10:18.758Z,99.42
2022-11-09T20:13:03.934Z,99.00
2022-11-09T20:15:48.785Z,99.36
2022-11-09T20:18:38.211Z,99.25
2022-11-09T20:21:23.194Z,98.63
2022-11-09T20:24:08.334Z,98.82
2022-11-09T20:26:53.364Z,98.92
2022-11-09T20:29:38.110Z,98.46
2022-11-09T20:32:23.766Z,98.43
2022-11-09T20:35:09.452Z,98.77
2022-11-09T20:37:54.655Z,98.28
2022-11-09T20:40:39.616Z,98.49
2022-11-09T20:43:25.824Z,97.86
2022-11-09T20:46:20.173Z,97.79
2022-11-09T20:49:05.706Z,98.03
2022-11-09T20:51:50.485Z,97.95
2022-11-09T20:54:35.408Z,98.36
2022-11-09T20:57:21.446Z,98.37
2022-11-09T21:00:07.704Z,98.28
2022-11-09T21:02:52.842Z,98.63
2022-11-09T21:05:37.643Z,98.18
2022-11-09T21:08:22.899Z,97.95
2022-11-09T21:11:09.640Z,98.32
2022-11-09T21:13:55.365Z,98.38
2022-11-09T21:16:40.332Z,98.37
2022-11-09T21:19:25.144Z,98.19
2022-11-09T21:22:10.185Z,98.60
2022-11-09T21:25:14.046Z,98.43
2022-11-09T21:28:31.443Z,98.35
2022-11-09T21:31:16.213Z,98.40
2022-11-09T21:34:01.493Z,98.57
2022-11-09T21:36:46.430Z,98.77
2022-11-09T21:39:31.861Z,98.29
2022-11-09T21:42:16.862Z,98.58
2022-11-09T21:45:01.981Z,98.63
2022-11-09T21:47:46.880Z,98.87
2022-11-09T21:50:31.964Z,98.93
2022-11-09T21:53:17.071Z,98.78
2022-11-09T21:56:01.925Z,98.59
2022-11-09T21:58:48.018Z,98.65
2022-11-09T22:01:32.990Z,98.90
2022-11-09T22:04:17.991Z,98.84
2022-11-09T22:07:02.803Z,98.88
2022-11-09T22:10:09.354Z,99.27
2022-11-09T22:13:13.396Z,99.36
2022-11-09T22:16:09.343Z,99.28
2022-11-09T22:19:12.982Z,99.01
2022-11-09T22:21:58.111Z,99.39
2022-11-09T22:24:43.004Z,99.35
2022-11-09T22:27:31.175Z,99.25
2022-11-09T22:30:16.715Z,99.45
2022-11-09T22:33:01.630Z,99.81
2022-11-09T22:35:54.052Z,99.71
2022-11-09T22:38:38.929Z,99.44
2022-11-09T22:41:24.568Z,99.67
2022-11-09T22:44:09.861Z,99.40
2022-11-09T22:46:55.197Z,99.97
2022-11-09T22:49:40.368Z,99.76
2022-11-09T22:52:25.487Z,99.69
2022-11-09T22:55:10.597Z,100.00
2022-11-09T22:57:56.868Z,100.00
2022-11-09T23:00:42.234Z,99.79
2022-11-09T23:03:27.329Z,100.00
2022-11-09T23:06:21.840Z,100.00
2022-11-09T23:09:06.996Z,99.96
2022-11-09T23:11:52.128Z,100.00
2022-11-09T23:14:55.906Z,100.00
2022-11-09T23:17:59.808Z,100.00
2022-11-09T23:20:44.983Z,100.00
2022-11-09T23:23:29.915Z,100.00
2022-11-09T23:26:15.139Z,100.00
2022-11-09T23:29:00.404Z,100.00
2022-11-09T23:31:45.505Z,99.88
2022-11-09T23:34:30.161Z,99.82
2022-11-09T23:37:15.044Z,100.00
2022-11-09T23:39:59.983Z,99.99
2022-11-09T23:42:45.370Z,100.00
2022-11-09T23:45:32.681Z,100.00
2022-11-09T23:48:19.218Z,100.00
2022-11-09T23:51:05.564Z,100.00
2022-11-09T23:53:50.445Z,100.00
2022-11-09T23:56:35.333Z,100.00
2022-11-09T23:59:20.304Z,100.00
